createdAt,value
2018-12-04T00:00:56.054Z,85.19
2018-12-04T00:03:23.713Z,85.02
2018-12-04T00:05:51.353Z,85.75
2018-12-04T00:08:18.989Z,85.05
2018-12-04T00:10:46.889Z,85.76
2018-12-04T00:13:14.506Z,86.23
2018-12-04T00:15:42.132Z,85.78
2018-12-04T00:18:10.109Z,86.45
2018-12-04T00:20:38.177Z,85.81
2018-12-04T00:23:06.290Z,86.25
2018-12-04T00:25:33.894Z,86.87
2018-12-04T00:28:01.631Z,86.46
2018-12-04T00:30:29.644Z,86.67
2018-12-04T00:32:57.665Z,86.90
2018-12-04T00:35:25.312Z,87.21
2018-12-04T00:37:52.932Z,87.36
2018-12-04T00:40:20.917Z,86.91
2018-12-04T00:42:48.585Z,87.32
2018-12-04T00:45:16.229Z,87.47
2018-12-04T00:47:44.291Z,87.08
2018-12-04T00:50:11.893Z,87.46
2018-12-04T00:52:39.502Z,87.75
2018-12-04T00:55:07.082Z,87.74
2018-12-04T00:57:35.125Z,87.53
2018-12-04T01:00:02.711Z,87.89
2018-12-04T01:02:30.284Z,87.72
2018-12-04T01:04:57.935Z,87.61
2018-12-04T01:07:25.869Z,87.13
2018-12-04T01:09:53.469Z,87.83
2018-12-04T01:12:21.079Z,86.63
2018-12-04T01:14:48.677Z,87.32
2018-12-04T01:17:17.620Z,87.29
2018-12-04T01:19:45.283Z,87.50
2018-12-04T01:22:12.874Z,87.21
2018-12-04T01:24:40.482Z,87.24
2018-12-04T01:27:08.388Z,87.24
2018-12-04T01:29:36.889Z,87.17
2018-12-04T01:32:05.108Z,87.27
2018-12-04T01:34:32.718Z,87.69
2018-12-04T01:37:00.706Z,87.67
2018-12-04T01:39:28.317Z,86.82
2018-12-04T01:41:55.937Z,87.61
2018-12-04T01:44:23.545Z,86.86
2018-12-04T01:46:51.162Z,87.00
2018-12-04T01:49:19.218Z,87.01
2018-12-04T01:51:46.861Z,87.18
2018-12-04T01:54:14.464Z,87.24
2018-12-04T01:56:42.092Z,87.12
2018-12-04T01:59:10.086Z,87.07
2018-12-04T02:01:37.669Z,86.79
2018-12-04T02:04:06.539Z,86.81
2018-12-04T02:06:34.174Z,86.70
2018-12-04T02:09:02.167Z,86.64
2018-12-04T02:11:29.784Z,86.94
2018-12-04T02:13:57.405Z,86.37
2018-12-04T02:16:25.349Z,87.54
2018-12-04T02:18:52.988Z,86.53
2018-12-04T02:21:20.629Z,86.35
2018-12-04T02:23:48.265Z,86.96
2018-12-04T02:26:16.198Z,86.79
2018-12-04T02:28:43.816Z,86.61
2018-12-04T02:31:11.420Z,86.28
2018-12-04T02:33:38.985Z,86.53
2018-12-04T02:36:07.034Z,86.95
2018-12-04T02:38:34.692Z,86.66
2018-12-04T02:41:02.287Z,86.99
2018-12-04T02:43:29.922Z,86.75
2018-12-04T02:45:57.536Z,86.67
2018-12-04T02:48:25.130Z,86.56
2018-12-04T02:50:53.226Z,86.65
2018-12-04T02:53:21.470Z,86.65
2018-12-04T02:55:49.060Z,86.16
2018-12-04T02:58:17.050Z,86.55
2018-12-04T03:00:44.946Z,86.01
2018-12-04T03:03:12.524Z,86.54
2018-12-04T03:05:40.153Z,85.96
2018-12-04T03:08:08.238Z,86.80
2018-12-04T03:10:35.809Z,86.62
2018-12-04T03:13:03.437Z,86.42
2018-12-04T03:15:31.710Z,86.39
2018-12-04T03:17:59.374Z,86.33
2018-12-04T03:20:27.011Z,86.55
2018-12-04T03:22:54.618Z,86.04
2018-12-04T03:25:22.623Z,86.00
2018-12-04T03:27:50.209Z,86.03
2018-12-04T03:30:17.787Z,86.47
2018-12-04T03:32:45.865Z,86.21
2018-12-04T03:35:13.475Z,86.51
2018-12-04T03:37:41.052Z,86.46
2018-12-04T03:40:08.658Z,85.92
2018-12-04T03:42:36.639Z,86.31
2018-12-04T03:45:04.193Z,86.27
2018-12-04T03:47:31.781Z,86.01
2018-12-04T03:49:59.405Z,86.29
2018-12-04T03:52:27.317Z,86.06
2018-12-04T03:54:54.917Z,86.31
2018-12-04T03:57:23.473Z,86.06
2018-12-04T03:59:51.076Z,85.82
2018-12-04T04:02:19.070Z,85.81
2018-12-04T04:04:46.661Z,85.66
2018-12-04T04:07:14.234Z,86.05
2018-12-04T04:09:41.798Z,85.89
2018-12-04T04:12:10.048Z,86.07
2018-12-04T04:14:37.711Z,85.77
2018-12-04T04:17:05.317Z,85.88
2018-12-04T04:19:32.958Z,86.01
2018-12-04T04:22:00.968Z,86.44
2018-12-04T04:24:28.602Z,86.26
2018-12-04T04:26:56.219Z,86.23
2018-12-04T04:29:23.850Z,86.19
2018-12-04T04:31:54.856Z,86.32
2018-12-04T04:34:22.469Z,86.26
2018-12-04T04:36:50.049Z,86.22
2018-12-04T04:39:17.698Z,85.88
2018-12-04T04:41:45.801Z,86.61
2018-12-04T04:44:13.386Z,86.12
2018-12-04T04:46:40.973Z,86.25
2018-12-04T04:49:09.270Z,86.49
2018-12-04T04:51:37.262Z,86.35
2018-12-04T04:54:04.885Z,86.39
2018-12-04T04:56:32.484Z,86.90
2018-12-04T04:59:00.086Z,86.42
2018-12-04T05:01:28.105Z,86.54
2018-12-04T05:03:55.767Z,86.43
2018-12-04T05:06:23.410Z,86.42
2018-12-04T05:08:51.043Z,86.28
2018-12-04T05:11:18.946Z,86.05
2018-12-04T05:13:46.538Z,86.78
2018-12-04T05:16:14.125Z,86.39
2018-12-04T05:18:41.777Z,86.40
2018-12-04T05:21:09.798Z,86.54
2018-12-04T05:23:37.637Z,86.40
2018-12-04T05:26:05.245Z,86.48
2018-12-04T05:28:33.186Z,86.76
2018-12-04T05:31:00.803Z,86.88
2018-12-04T05:33:29.333Z,86.72
2018-12-04T05:36:00.815Z,86.72
2018-12-04T05:38:28.405Z,86.53
2018-12-04T05:40:55.977Z,87.05
2018-12-04T05:43:23.871Z,87.28
2018-12-04T05:45:51.514Z,86.80
2018-12-04T05:48:19.131Z,87.24
2018-12-04T05:50:47.056Z,86.54
2018-12-04T05:53:14.665Z,86.82
2018-12-04T05:55:42.314Z,86.65
2018-12-04T05:58:10.361Z,87.20
2018-12-04T06:00:38.007Z,87.25
2018-12-04T06:03:05.642Z,87.31
2018-12-04T06:05:33.550Z,87.34
2018-12-04T06:08:01.218Z,87.08
2018-12-04T06:10:28.794Z,87.37
2018-12-04T06:12:56.759Z,87.07
2018-12-04T06:15:24.378Z,87.08
2018-12-04T06:17:51.945Z,86.91
2018-12-04T06:20:19.824Z,86.49
2018-12-04T06:22:47.405Z,86.89
2018-12-04T06:25:15.094Z,86.11
2018-12-04T06:27:43.186Z,86.41
2018-12-04T06:30:10.790Z,86.84
2018-12-04T06:32:38.406Z,86.43
2018-12-04T06:35:07.079Z,86.50
2018-12-04T06:37:34.757Z,86.56
2018-12-04T06:40:02.386Z,86.37
2018-12-04T06:42:30.333Z,86.87
2018-12-04T06:44:57.909Z,86.08
2018-12-04T06:47:25.534Z,86.20
2018-12-04T06:49:53.529Z,86.28
2018-12-04T06:52:21.144Z,86.28
2018-12-04T06:54:48.739Z,86.46
2018-12-04T06:57:16.693Z,86.40
2018-12-04T06:59:44.270Z,86.15
2018-12-04T07:02:11.926Z,86.19
2018-12-04T07:04:40.006Z,86.17
2018-12-04T07:07:07.606Z,85.94
2018-12-04T07:09:35.180Z,85.95
2018-12-04T07:12:03.091Z,85.90
2018-12-04T07:14:30.694Z,86.37
2018-12-04T07:16:58.297Z,85.90
2018-12-04T07:19:26.409Z,85.86
2018-12-04T07:21:54.042Z,85.98
2018-12-04T07:24:21.642Z,86.48
2018-12-04T07:26:49.561Z,86.21
2018-12-04T07:29:17.156Z,86.81
2018-12-04T07:31:44.759Z,86.46
2018-12-04T07:34:12.755Z,86.33
2018-12-04T07:36:40.366Z,86.79
2018-12-04T07:39:08.288Z,86.88
2018-12-04T07:41:37.114Z,85.96
2018-12-04T07:44:04.734Z,86.04
2018-12-04T07:46:32.360Z,85.80
2018-12-04T07:49:00.369Z,86.20
2018-12-04T07:51:28.032Z,85.90
2018-12-04T07:53:58.660Z,86.33
2018-12-04T07:56:26.642Z,85.90
2018-12-04T07:58:54.269Z,86.23
2018-12-04T08:01:21.857Z,85.99
2018-12-04T08:03:50.542Z,85.95
2018-12-04T08:06:18.917Z,85.99
2018-12-04T08:08:46.504Z,86.26
2018-12-04T08:11:14.549Z,85.99
2018-12-04T08:13:42.146Z,86.20
2018-12-04T08:16:10.438Z,85.92
2018-12-04T08:18:38.428Z,86.19
2018-12-04T08:21:06.010Z,86.05
2018-12-04T08:23:33.592Z,86.21
2018-12-04T08:26:01.531Z,86.20
2018-12-04T08:28:29.105Z,86.39
2018-12-04T08:30:56.736Z,86.01
2018-12-04T08:33:24.751Z,85.52
2018-12-04T08:35:52.453Z,85.63
2018-12-04T08:38:20.077Z,84.94
2018-12-04T08:40:48.123Z,84.50
2018-12-04T08:43:15.750Z,85.01
2018-12-04T08:45:43.344Z,85.24
2018-12-04T08:48:11.317Z,84.51
2018-12-04T08:50:39.784Z,85.14
2018-12-04T08:53:07.388Z,84.52
2018-12-04T08:55:35.422Z,84.22
2018-12-04T08:58:03.042Z,84.19
2018-12-04T09:00:30.610Z,84.12
2018-12-04T09:02:58.613Z,84.40
2018-12-04T09:05:26.259Z,83.71
2018-12-04T09:07:53.853Z,83.79
2018-12-04T09:10:23.230Z,84.29
2018-12-04T09:12:50.855Z,84.53
2018-12-04T09:15:18.466Z,84.17
2018-12-04T09:17:46.438Z,84.94
2018-12-04T09:20:14.085Z,84.75
2018-12-04T09:22:41.758Z,84.48
2018-12-04T09:25:09.918Z,84.55
2018-12-04T09:27:37.565Z,84.39
2018-12-04T09:30:05.344Z,84.73
2018-12-04T09:32:34.405Z,84.87
2018-12-04T09:35:02.080Z,84.32
2018-12-04T09:37:29.690Z,84.20
2018-12-04T09:39:58.546Z,83.81
2018-12-04T09:42:26.150Z,83.48
2018-12-04T09:44:53.813Z,82.39
2018-12-04T09:47:21.854Z,82.29
2018-12-04T09:49:49.509Z,81.25
2018-12-04T09:52:17.916Z,79.73
2018-12-04T09:54:45.867Z,79.19
2018-12-04T09:57:13.501Z,76.97
2018-12-04T09:59:41.945Z,75.61
2018-12-04T10:02:09.876Z,73.51
2018-12-04T10:04:37.508Z,74.90
2018-12-04T10:07:05.745Z,74.95
2018-12-04T10:09:34.549Z,75.02
2018-12-04T10:12:02.144Z,76.45
2018-12-04T10:14:29.790Z,78.06
2018-12-04T10:16:57.769Z,79.67
2018-12-04T10:19:25.375Z,80.69
2018-12-04T10:21:52.970Z,80.91
2018-12-04T10:24:20.992Z,81.15
2018-12-04T10:26:52.666Z,80.56
2018-12-04T10:29:20.295Z,80.44
2018-12-04T10:31:48.293Z,80.80
2018-12-04T10:34:15.935Z,80.37
2018-12-04T10:36:43.544Z,80.30
2018-12-04T10:39:11.539Z,80.63
2018-12-04T10:41:39.141Z,79.99
2018-12-04T10:44:06.752Z,80.15
2018-12-04T10:46:34.782Z,79.43
2018-12-04T10:49:02.882Z,76.56
2018-12-04T10:51:30.547Z,73.48
2018-12-04T10:53:59.553Z,72.27
2018-12-04T10:56:28.131Z,72.74
2018-12-04T10:58:57.059Z,73.27
2018-12-04T11:01:29.057Z,74.87
2018-12-04T11:03:56.833Z,74.61
2018-12-04T11:06:24.484Z,75.54
2018-12-04T11:08:52.515Z,76.59
2018-12-04T11:11:20.913Z,77.68
2018-12-04T11:13:48.580Z,77.57
2018-12-04T11:16:16.514Z,76.68
2018-12-04T11:18:44.104Z,74.63
2018-12-04T11:21:12.562Z,73.67
2018-12-04T11:23:40.561Z,72.49
2018-12-04T11:26:08.299Z,70.84
2018-12-04T11:28:35.952Z,70.36
2018-12-04T11:31:03.933Z,70.46
2018-12-04T11:33:31.591Z,70.46
2018-12-04T11:35:59.254Z,69.84
2018-12-04T11:38:28.213Z,69.10
2018-12-04T11:40:56.420Z,69.05
2018-12-04T11:43:24.061Z,68.42
2018-12-04T11:45:51.816Z,67.40
2018-12-04T11:48:19.564Z,68.28
2018-12-04T11:50:47.481Z,68.16
2018-12-04T11:53:15.108Z,69.19
2018-12-04T11:55:42.733Z,69.53
2018-12-04T11:58:12.563Z,71.23
2018-12-04T12:00:40.291Z,71.93
2018-12-04T12:03:07.986Z,72.53
2018-12-04T12:05:37.131Z,73.94
2018-12-04T12:08:05.719Z,74.70
2018-12-04T12:10:33.413Z,75.65
2018-12-04T12:13:01.382Z,75.58
2018-12-04T12:15:29.115Z,76.28
2018-12-04T12:17:56.737Z,76.82
2018-12-04T12:20:24.778Z,76.75
2018-12-04T12:22:52.465Z,77.24
2018-12-04T12:25:20.744Z,77.73
2018-12-04T12:27:48.821Z,77.95
2018-12-04T12:30:16.456Z,77.26
2018-12-04T12:32:44.090Z,77.78
2018-12-04T12:35:12.185Z,77.40
2018-12-04T12:37:40.665Z,76.58
2018-12-04T12:40:08.286Z,76.82
2018-12-04T12:42:37.297Z,76.18
2018-12-04T12:45:04.909Z,76.55
2018-12-04T12:47:32.546Z,76.33
2018-12-04T12:50:01.219Z,76.43
2018-12-04T12:52:30.603Z,76.79
2018-12-04T12:54:58.185Z,76.51
2018-12-04T12:57:26.461Z,77.25
2018-12-04T12:59:54.109Z,76.85
2018-12-04T13:02:21.774Z,77.44
2018-12-04T13:04:49.729Z,77.16
2018-12-04T13:07:17.407Z,77.00
2018-12-04T13:09:45.918Z,76.88
2018-12-04T13:12:14.648Z,76.37
2018-12-04T13:14:42.336Z,75.50
2018-12-04T13:17:10.543Z,76.03
2018-12-04T13:19:38.706Z,75.45
2018-12-04T13:22:06.326Z,75.78
2018-12-04T13:24:33.977Z,75.12
2018-12-04T13:27:02.139Z,75.06
2018-12-04T13:29:32.293Z,75.28
2018-12-04T13:32:00.717Z,75.32
2018-12-04T13:34:29.209Z,74.71
2018-12-04T13:36:58.727Z,75.03
2018-12-04T13:39:27.103Z,74.99
2018-12-04T13:41:55.288Z,74.31
2018-12-04T13:44:23.650Z,74.68
2018-12-04T13:46:51.259Z,74.82
2018-12-04T13:49:19.330Z,75.81
2018-12-04T13:51:47.036Z,76.07
2018-12-04T13:54:15.461Z,75.81
2018-12-04T13:56:43.569Z,76.57
2018-12-04T13:59:11.217Z,76.00
2018-12-04T14:01:39.507Z,76.18
2018-12-04T14:04:07.593Z,75.86
2018-12-04T14:06:35.231Z,75.63
2018-12-04T14:09:03.953Z,75.69
2018-12-04T14:11:31.959Z,74.87
2018-12-04T14:14:00.219Z,74.25
2018-12-04T14:16:27.826Z,74.34
2018-12-04T14:18:55.754Z,73.63
2018-12-04T14:21:24.795Z,73.89
2018-12-04T14:23:52.403Z,74.18
2018-12-04T14:26:20.509Z,74.40
2018-12-04T14:28:48.113Z,74.88
2018-12-04T14:31:16.509Z,74.95
2018-12-04T14:33:44.766Z,76.12
2018-12-04T14:36:12.866Z,76.25
2018-12-04T14:38:40.666Z,76.51
2018-12-04T14:41:08.669Z,77.22
2018-12-04T14:43:37.517Z,77.85
2018-12-04T14:46:05.160Z,78.32
2018-12-04T14:48:33.620Z,78.26
2018-12-04T14:51:01.314Z,79.32
2018-12-04T14:53:28.981Z,79.47
2018-12-04T14:55:57.590Z,79.38
2018-12-04T14:58:25.230Z,79.36
2018-12-04T15:00:52.881Z,80.38
2018-12-04T15:03:20.836Z,80.04
2018-12-04T15:05:48.472Z,80.18
2018-12-04T15:08:16.049Z,80.38
2018-12-04T15:10:44.649Z,80.18
2018-12-04T15:13:12.492Z,80.56
2018-12-04T15:15:41.379Z,81.38
2018-12-04T15:18:09.466Z,81.30
2018-12-04T15:20:38.083Z,80.82
2018-12-04T15:23:05.731Z,80.85
2018-12-04T15:25:34.621Z,81.22
2018-12-04T15:28:02.314Z,81.64
2018-12-04T15:30:30.072Z,81.77
2018-12-04T15:32:58.257Z,81.39
2018-12-04T15:35:25.901Z,81.74
2018-12-04T15:37:53.549Z,82.09
2018-12-04T15:40:21.533Z,82.13
2018-12-04T15:42:49.205Z,81.71
2018-12-04T15:45:16.866Z,81.74
2018-12-04T15:47:44.727Z,81.81
2018-12-04T15:50:12.961Z,82.64
2018-12-04T15:52:41.720Z,82.53
2018-12-04T15:55:09.543Z,82.65
2018-12-04T15:57:38.157Z,82.52
2018-12-04T16:00:06.093Z,82.84
2018-12-04T16:02:33.699Z,82.88
2018-12-04T16:05:03.067Z,82.73
2018-12-04T16:07:33.154Z,82.88
2018-12-04T16:10:00.758Z,82.83
2018-12-04T16:12:28.403Z,82.87
2018-12-04T16:14:56.324Z,83.50
2018-12-04T16:17:24.199Z,83.46
2018-12-04T16:19:51.846Z,83.19
2018-12-04T16:22:19.785Z,83.06
2018-12-04T16:24:47.417Z,83.59
2018-12-04T16:27:15.146Z,83.04
2018-12-04T16:29:43.112Z,83.28
2018-12-04T16:32:10.748Z,83.47
2018-12-04T16:34:40.925Z,83.73
2018-12-04T16:37:09.193Z,83.40
2018-12-04T16:39:36.777Z,83.43
2018-12-04T16:42:05.054Z,83.88
2018-12-04T16:44:33.066Z,83.77
2018-12-04T16:47:00.731Z,83.50
2018-12-04T16:49:32.309Z,83.56
2018-12-04T16:52:01.101Z,83.58
2018-12-04T16:54:28.730Z,84.03
2018-12-04T16:56:56.345Z,84.07
2018-12-04T16:59:24.501Z,83.74
2018-12-04T17:01:52.176Z,83.74
2018-12-04T17:04:19.798Z,84.12
2018-12-04T17:06:47.706Z,84.27
2018-12-04T17:09:16.373Z,84.55
2018-12-04T17:11:44.670Z,83.84
2018-12-04T17:14:13.681Z,84.15
2018-12-04T17:16:41.439Z,84.18
2018-12-04T17:19:09.223Z,84.16
2018-12-04T17:21:37.130Z,84.08
2018-12-04T17:24:05.375Z,84.03
2018-12-04T17:26:32.986Z,84.47
2018-12-04T17:29:02.032Z,84.39
2018-12-04T17:31:32.637Z,84.07
2018-12-04T17:34:00.266Z,83.57
2018-12-04T17:36:28.359Z,83.58
2018-12-04T17:38:56.002Z,83.74
2018-12-04T17:41:23.630Z,83.79
2018-12-04T17:43:52.952Z,83.80
2018-12-04T17:46:20.585Z,83.87
2018-12-04T17:48:49.088Z,84.33
2018-12-04T17:51:18.076Z,84.03
2018-12-04T17:53:45.661Z,83.91
2018-12-04T17:56:13.559Z,84.01
2018-12-04T17:58:41.594Z,84.20
2018-12-04T18:01:09.348Z,83.92
2018-12-04T18:03:36.941Z,83.65
2018-12-04T18:06:08.622Z,83.67
2018-12-04T18:08:37.040Z,83.59
2018-12-04T18:11:05.689Z,84.07
2018-12-04T18:13:35.753Z,84.11
2018-12-04T18:16:03.354Z,84.15
2018-12-04T18:18:33.258Z,83.96
2018-12-04T18:21:01.279Z,83.59
2018-12-04T18:23:28.895Z,83.62
2018-12-04T18:25:56.523Z,84.05
2018-12-04T18:28:24.565Z,83.73
2018-12-04T18:30:52.173Z,83.87
2018-12-04T18:33:19.790Z,84.69
2018-12-04T18:35:48.636Z,83.84
2018-12-04T18:38:17.357Z,84.07
2018-12-04T18:40:44.993Z,84.10
2018-12-04T18:43:13.024Z,84.52
2018-12-04T18:45:40.664Z,84.13
2018-12-04T18:48:08.280Z,84.23
2018-12-04T18:50:36.234Z,83.94
2018-12-04T18:53:06.745Z,84.13
2018-12-04T18:55:34.359Z,84.04
2018-12-04T18:58:02.390Z,84.27
2018-12-04T19:00:30.535Z,84.30
2018-12-04T19:02:58.171Z,84.44
2018-12-04T19:05:26.222Z,84.59
2018-12-04T19:07:53.801Z,84.23
2018-12-04T19:10:21.717Z,84.18
2018-12-04T19:12:50.046Z,84.40
2018-12-04T19:15:17.664Z,84.65
2018-12-04T19:17:45.297Z,84.49
2018-12-04T19:20:14.637Z,84.56
2018-12-04T19:22:42.274Z,84.70
2018-12-04T19:25:11.681Z,84.69
2018-12-04T19:27:39.636Z,85.03
2018-12-04T19:30:08.970Z,84.92
2018-12-04T19:32:37.401Z,85.24
2018-12-04T19:35:05.322Z,84.92
2018-12-04T19:37:33.020Z,85.04
2018-12-04T19:40:01.694Z,84.93
2018-12-04T19:42:30.648Z,84.88
2018-12-04T19:44:58.277Z,85.16
2018-12-04T19:47:26.537Z,84.52
2018-12-04T19:49:55.139Z,84.67
2018-12-04T19:52:22.766Z,84.76
2018-12-04T19:54:50.485Z,84.81
2018-12-04T19:57:18.762Z,84.51
2018-12-04T19:59:46.506Z,85.06
2018-12-04T20:02:15.223Z,84.94
2018-12-04T20:04:43.360Z,84.99
2018-12-04T20:07:11.693Z,84.86
2018-12-04T20:09:39.343Z,84.67
2018-12-04T20:12:07.545Z,85.08
2018-12-04T20:14:35.212Z,84.64
2018-12-04T20:17:03.477Z,84.85
2018-12-04T20:19:32.383Z,84.90
2018-12-04T20:22:00.589Z,84.88
2018-12-04T20:24:28.291Z,84.55
2018-12-04T20:26:56.332Z,84.92
2018-12-04T20:29:23.958Z,84.97
2018-12-04T20:31:51.636Z,84.66
2018-12-04T20:34:19.624Z,84.96
2018-12-04T20:36:49.193Z,85.06
2018-12-04T20:39:16.805Z,85.08
2018-12-04T20:41:45.495Z,84.80
2018-12-04T20:44:13.128Z,84.87
2018-12-04T20:46:40.832Z,85.00
2018-12-04T20:49:08.624Z,85.08
2018-12-04T20:51:38.140Z,84.74
2018-12-04T20:54:06.096Z,84.99
2018-12-04T20:56:35.383Z,85.12
2018-12-04T20:59:03.942Z,85.13
2018-12-04T21:01:32.089Z,85.35
2018-12-04T21:03:59.742Z,85.07
2018-12-04T21:06:28.775Z,85.23
2018-12-04T21:08:57.557Z,85.00
2018-12-04T21:11:25.266Z,85.12
2018-12-04T21:13:54.295Z,84.75
2018-12-04T21:16:22.414Z,85.28
2018-12-04T21:18:51.306Z,84.94
2018-12-04T21:21:20.496Z,84.64
2018-12-04T21:23:49.137Z,84.90
2018-12-04T21:26:16.748Z,84.88
2018-12-04T21:28:49.005Z,85.33
2018-12-04T21:31:23.600Z,85.00
2018-12-04T21:33:56.534Z,85.29
2018-12-04T21:36:29.230Z,85.02
2018-12-04T21:39:05.029Z,85.03
2018-12-04T21:41:37.736Z,85.42
2018-12-04T21:44:11.415Z,85.50
2018-12-04T21:46:45.007Z,85.35
2018-12-04T21:49:12.664Z,85.38
2018-12-04T21:51:40.659Z,85.27
2018-12-04T21:54:08.311Z,85.23
2018-12-04T21:56:35.995Z,85.34
2018-12-04T21:59:04.608Z,85.03
2018-12-04T22:01:32.553Z,85.14
2018-12-04T22:04:00.172Z,85.36
2018-12-04T22:06:28.767Z,84.98
2018-12-04T22:08:56.749Z,85.28
2018-12-04T22:11:24.774Z,84.87
2018-12-04T22:13:52.504Z,85.08
2018-12-04T22:16:20.110Z,84.90
2018-12-04T22:18:47.746Z,84.82
2018-12-04T22:21:15.422Z,84.97
2018-12-04T22:23:43.531Z,85.13
2018-12-04T22:26:11.208Z,85.27
2018-12-04T22:28:38.809Z,85.23
2018-12-04T22:31:06.735Z,85.33
2018-12-04T22:33:34.336Z,84.85
2018-12-04T22:36:03.146Z,85.17
2018-12-04T22:38:30.862Z,85.12
2018-12-04T22:40:58.782Z,84.97
2018-12-04T22:43:26.414Z,85.41
2018-12-04T22:45:54.059Z,85.65
2018-12-04T22:48:21.682Z,85.36
2018-12-04T22:50:49.541Z,85.43
2018-12-04T22:53:17.716Z,85.23
2018-12-04T22:55:45.821Z,85.37
2018-12-04T22:58:13.453Z,85.30
2018-12-04T23:00:42.648Z,85.21
2018-12-04T23:03:10.655Z,85.31
2018-12-04T23:05:38.298Z,85.12
2018-12-04T23:08:05.979Z,85.12
2018-12-04T23:10:33.643Z,85.27
2018-12-04T23:13:01.693Z,85.42
2018-12-04T23:15:30.513Z,85.24
2018-12-04T23:17:58.359Z,85.46
2018-12-04T23:20:26.014Z,85.28
2018-12-04T23:22:54.118Z,85.13
2018-12-04T23:25:21.749Z,84.95
2018-12-04T23:27:49.350Z,85.14
2018-12-04T23:30:16.993Z,84.75
2018-12-04T23:32:45.017Z,85.16
2018-12-04T23:35:12.613Z,84.91
2018-12-04T23:37:40.324Z,85.05
2018-12-04T23:40:07.954Z,84.93
2018-12-04T23:42:35.891Z,84.98
2018-12-04T23:45:03.529Z,84.81
2018-12-04T23:47:31.123Z,85.02
2018-12-04T23:49:58.758Z,84.75
2018-12-04T23:52:26.394Z,84.42
2018-12-04T23:54:54.422Z,84.63
2018-12-04T23:57:22.029Z,84.55
2018-12-04T23:59:49.640Z,84.63
